Rochester, NY

12:09 AM EDT on August 03, 2015 (GMT -0400)
APRSWXNET | | Change Station
CLOSE
Current Station
Personal Weather Station
Location: Rochester, NY
Elevation: 518 ft
Nearby Weather Stations

Elev 518 ft 43.18 °N, 77.55 °W | Updated 22 minutes ago

Mostly Cloudy
Mostly Cloudy
73 °F
Feels Like 76 °F
N
0
Wind Variable Wind from SW
Gusts 7.0 mph

Today
High -- | Low -- °F
--% Chance of Precip.
Yesterday
High -- | Low -- °F
Precip. -- in
6:02 AM 8:29 PM
Waning Gibbous, 90% visible
Pressure 29.67 in
Visibility 10.0 miles
Clouds Few 14000 ft
Overcast 20000 ft
Heat Index 76 °F
Dew Point 60 °F
Humidity 64%
Rainfall in
Snow Depth Not available.
UV 0 out of 12
Pollen 8.30 out of 12
Air Quality Not available.
Flu Activity Not available.
METAR KROC 030354Z 23008KT 10SM FEW140 OVC200 23/15 A2968 RMK AO2 SLP046 T02280150

More Conditions Fewer Conditions

Pressure 29.67 in
Visibility 10.0 miles
Clouds Few 14000 ft
Overcast 20000 ft
Heat Index 76 °F
Dew Point 60 °F
Humidity 64%
Rainfall in
Snow Depth Not available.
UV 0 out of 12
Pollen 8.30 out of 12
Air Quality Not available.
Flu Activity Not available.
METAR KROC 030354Z 23008KT 10SM FEW140 OVC200 23/15 A2968 RMK AO2 SLP046 T02280150

More Conditions Fewer Conditions

10-Day Weather Forecast

×

Almanac

Astronomy

Aug. 03, 2015 Rise Set
Actual Time
Civil Twilight
Nautical Twilight
Astronomical Twilight
Moon
Length of Visible Light
Length of Day
Tomorrow will be .
, % of the Moon is Illuminated

Today's Extremes

State Highs State Lows

Community

WunderPhotos

Upload Photos

1,843,567 photos uploaded!

WunderBlogs® & News

Nearby

Air Quality

  Air Quality AQ Index Pollutant
Not available.

Snow Depth

Station Depth Elevation

Earthquake Activity

City Distance Mag. Time & Date
Minimum magnitude displayed is 2.5.

Coastal Water Temperatures

Place Temperature

Stations

Nearby Weather Stations

Station Location Temp. Windchill Dew Point Humidity Wind Precip. Elev Updated Type